VOZ9425 YBBN-YBGD
Flight info
| Callsign | VOZ9425 |
|---|---|
| Flight time | 5h 28m |
| Altitude | 26000 |
| Route | WACKO V250 LEBIT V412 ROM/N0449F280 DCT 26S145E 25S140E 25S135E/N0450F300 24S130E 24S125E 23S120E DCT GUVNA |
| Aircraft | B738/M-SDE2E3FGHIRWXY/LB1 |
Departure
| Time | 2026-05-04 13:05 |
|---|---|
| Airport | Brisbane International Airport (YBBN) |
Arrival
| Time | 2026-05-04 18:33 |
|---|---|
| Airport | Boolgeeda (YBGD) |
| Time | Latitude | Longitude | Altitude | Speed | Heading |
|---|---|---|---|---|---|
| 2026-05-04 12:33 | -27.38718 | 153.11946 | 20 ft | 0 kts | 334° |
| 2026-05-04 12:52 | -27.38739 | 153.11955 | 22 ft | 4 kts | 347° |
| 2026-05-04 12:53 | -27.38756 | 153.11965 | 20 ft | 4 kts | 314° |
| 2026-05-04 12:53 | -27.38768 | 153.11988 | 23 ft | 4 kts | 264° |
| 2026-05-04 12:53 | -27.38764 | 153.12014 | 22 ft | 4 kts | 258° |
| 2026-05-04 12:53 | -27.38760 | 153.12039 | 21 ft | 4 kts | 273° |
| 2026-05-04 12:54 | -27.38769 | 153.12064 | 21 ft | 4 kts | 317° |
| 2026-05-04 12:54 | -27.38787 | 153.12082 | 20 ft | 4 kts | 319° |
| 2026-05-04 12:54 | -27.38806 | 153.12100 | 23 ft | 2 kts | 319° |
| 2026-05-04 12:54 | -27.38807 | 153.12102 | 23 ft | 0 kts | 319° |
| 2026-05-04 12:56 | -27.38798 | 153.12092 | 24 ft | 3 kts | 319° |
| 2026-05-04 12:57 | -27.38761 | 153.12082 | 20 ft | 6 kts | 14° |
| 2026-05-04 12:57 | -27.38758 | 153.12123 | 20 ft | 6 kts | 113° |
| 2026-05-04 12:57 | -27.38774 | 153.12171 | 20 ft | 7 kts | 104° |
| 2026-05-04 12:57 | -27.38787 | 153.12229 | 20 ft | 8 kts | 108° |
| 2026-05-04 12:58 | -27.38785 | 153.12304 | 20 ft | 13 kts | 56° |
| 2026-05-04 12:58 | -27.38706 | 153.12357 | 23 ft | 13 kts | 27° |
| 2026-05-04 12:58 | -27.38625 | 153.12404 | 21 ft | 13 kts | 27° |
| 2026-05-04 12:58 | -27.38546 | 153.12449 | 22 ft | 13 kts | 27° |
| 2026-05-04 12:59 | -27.38469 | 153.12493 | 21 ft | 12 kts | 27° |
| 2026-05-04 12:59 | -27.38393 | 153.12536 | 20 ft | 13 kts | 27° |
| 2026-05-04 12:59 | -27.38301 | 153.12589 | 22 ft | 18 kts | 27° |
| 2026-05-04 12:59 | -27.38190 | 153.12653 | 20 ft | 18 kts | 27° |
| 2026-05-04 13:00 | -27.38082 | 153.12713 | 22 ft | 17 kts | 27° |
| 2026-05-04 13:00 | -27.37979 | 153.12772 | 21 ft | 16 kts | 27° |
| 2026-05-04 13:00 | -27.37879 | 153.12829 | 21 ft | 16 kts | 27° |
| 2026-05-04 13:00 | -27.37784 | 153.12885 | 20 ft | 15 kts | 27° |
| 2026-05-04 13:01 | -27.37691 | 153.12937 | 21 ft | 15 kts | 28° |
| 2026-05-04 13:01 | -27.37603 | 153.12988 | 20 ft | 14 kts | 26° |
| 2026-05-04 13:01 | -27.37518 | 153.13036 | 21 ft | 13 kts | 27° |
| 2026-05-04 13:01 | -27.37437 | 153.13082 | 22 ft | 13 kts | 27° |
| 2026-05-04 13:02 | -27.37358 | 153.13127 | 21 ft | 13 kts | 27° |
| 2026-05-04 13:02 | -27.37282 | 153.13172 | 23 ft | 12 kts | 34° |
| 2026-05-04 13:02 | -27.37283 | 153.13259 | 21 ft | 12 kts | 113° |
| 2026-05-04 13:02 | -27.37321 | 153.13339 | 20 ft | 9 kts | 116° |
| 2026-05-04 13:03 | -27.37327 | 153.13355 | 21 ft | 0 kts | 117° |
| 2026-05-04 13:03 | -27.37328 | 153.13356 | 21 ft | 2 kts | 117° |
| 2026-05-04 13:03 | -27.37362 | 153.13404 | 21 ft | 14 kts | 139° |
| 2026-05-04 13:04 | -27.37483 | 153.13422 | 22 ft | 18 kts | 207° |
| 2026-05-04 13:04 | -27.37565 | 153.13373 | 21 ft | 28 kts | 207° |
| 2026-05-04 13:04 | -27.37928 | 153.13166 | 21 ft | 88 kts | 207° |
| 2026-05-04 13:04 | -27.38641 | 153.12762 | 21 ft | 139 kts | 208° |
| 2026-05-04 13:05 | -27.39629 | 153.12211 | 109 ft | 172 kts | 205° |
| 2026-05-04 13:05 | -27.40727 | 153.11599 | 581 ft | 181 kts | 206° |
| 2026-05-04 13:05 | -27.41869 | 153.10938 | 1144 ft | 186 kts | 207° |
| 2026-05-04 13:05 | -27.43005 | 153.10265 | 1753 ft | 188 kts | 206° |
| 2026-05-04 13:06 | -27.44240 | 153.09547 | 1988 ft | 211 kts | 205° |
| 2026-05-04 13:06 | -27.45582 | 153.08769 | 2254 ft | 224 kts | 205° |
| 2026-05-04 13:06 | -27.47031 | 153.07928 | 2466 ft | 240 kts | 207° |
| 2026-05-04 13:06 | -27.48295 | 153.06668 | 2798 ft | 253 kts | 240° |
| 2026-05-04 13:07 | -27.48746 | 153.04738 | 3306 ft | 259 kts | 269° |
| 2026-05-04 13:07 | -27.48660 | 153.02715 | 3953 ft | 260 kts | 275° |
| 2026-05-04 13:07 | -27.48491 | 153.00686 | 4589 ft | 261 kts | 275° |
| 2026-05-04 13:07 | -27.48326 | 152.98632 | 5221 ft | 263 kts | 275° |
| 2026-05-04 13:08 | -27.48175 | 152.96573 | 5829 ft | 265 kts | 275° |
| 2026-05-04 13:08 | -27.48030 | 152.94495 | 6435 ft | 266 kts | 275° |
| 2026-05-04 13:08 | -27.47578 | 152.92455 | 6801 ft | 275 kts | 302° |
| 2026-05-04 13:08 | -27.46236 | 152.90927 | 7290 ft | 277 kts | 328° |
| 2026-05-04 13:09 | -27.44539 | 152.89883 | 7897 ft | 278 kts | 333° |
| 2026-05-04 13:09 | -27.42792 | 152.88922 | 8471 ft | 281 kts | 334° |
| 2026-05-04 13:09 | -27.41028 | 152.87963 | 9061 ft | 283 kts | 334° |
| 2026-05-04 13:09 | -27.39271 | 152.87002 | 9646 ft | 285 kts | 333° |
| 2026-05-04 13:10 | -27.37487 | 152.86016 | 10203 ft | 288 kts | 333° |
| 2026-05-04 13:10 | -27.35644 | 152.84990 | 10365 ft | 305 kts | 333° |
| 2026-05-04 13:10 | -27.33687 | 152.83894 | 10509 ft | 322 kts | 333° |
| 2026-05-04 13:10 | -27.31628 | 152.82738 | 10638 ft | 339 kts | 333° |
| 2026-05-04 13:11 | -27.29466 | 152.81523 | 10740 ft | 355 kts | 333° |
| 2026-05-04 13:11 | -27.27214 | 152.80257 | 10913 ft | 367 kts | 333° |
| 2026-05-04 13:11 | -27.24917 | 152.78967 | 11282 ft | 371 kts | 333° |
| 2026-05-04 13:11 | -27.22611 | 152.77638 | 11778 ft | 372 kts | 331° |
| 2026-05-04 13:12 | -27.20336 | 152.76237 | 12304 ft | 373 kts | 327° |
| 2026-05-04 13:12 | -27.18412 | 152.74308 | 12759 ft | 373 kts | 308° |
| 2026-05-04 13:12 | -27.17043 | 152.71830 | 13316 ft | 373 kts | 298° |
| 2026-05-04 13:12 | -27.15855 | 152.69266 | 13787 ft | 376 kts | 297° |
| 2026-05-04 13:13 | -27.14666 | 152.66637 | 14221 ft | 378 kts | 297° |
| 2026-05-04 13:13 | -27.13467 | 152.64001 | 14671 ft | 380 kts | 297° |
| 2026-05-04 13:13 | -27.12253 | 152.61363 | 15122 ft | 381 kts | 297° |
| 2026-05-04 13:13 | -27.11026 | 152.58725 | 15565 ft | 382 kts | 298° |
| 2026-05-04 13:14 | -27.09783 | 152.56072 | 16023 ft | 384 kts | 298° |
| 2026-05-04 13:14 | -27.08536 | 152.53416 | 16462 ft | 385 kts | 298° |
| 2026-05-04 13:14 | -27.07280 | 152.50746 | 16859 ft | 388 kts | 298° |
| 2026-05-04 13:14 | -27.06012 | 152.48054 | 17241 ft | 391 kts | 297° |
| 2026-05-04 13:15 | -27.04736 | 152.45347 | 17665 ft | 393 kts | 297° |
| 2026-05-04 13:15 | -27.03454 | 152.42634 | 18083 ft | 395 kts | 297° |
| 2026-05-04 13:15 | -27.02163 | 152.39905 | 18478 ft | 396 kts | 297° |
| 2026-05-04 13:15 | -27.00867 | 152.37165 | 18826 ft | 398 kts | 297° |
| 2026-05-04 13:16 | -26.99566 | 152.34418 | 19212 ft | 398 kts | 297° |
| 2026-05-04 13:16 | -26.98271 | 152.31681 | 19591 ft | 398 kts | 297° |
| 2026-05-04 13:16 | -26.96968 | 152.28931 | 19950 ft | 399 kts | 297° |
| 2026-05-04 13:16 | -26.95664 | 152.26181 | 20289 ft | 400 kts | 297° |
| 2026-05-04 13:17 | -26.94355 | 152.23421 | 20632 ft | 401 kts | 297° |
| 2026-05-04 13:17 | -26.93063 | 152.20698 | 20969 ft | 402 kts | 297° |
| 2026-05-04 13:17 | -26.91746 | 152.17925 | 21296 ft | 403 kts | 297° |
| 2026-05-04 13:17 | -26.90423 | 152.15141 | 21618 ft | 404 kts | 297° |
| 2026-05-04 13:18 | -26.89102 | 152.12361 | 21944 ft | 405 kts | 297° |
| 2026-05-04 13:18 | -26.87774 | 152.09571 | 22273 ft | 406 kts | 297° |
| 2026-05-04 13:18 | -26.86444 | 152.06777 | 22580 ft | 407 kts | 297° |
| 2026-05-04 13:18 | -26.85114 | 152.03983 | 22937 ft | 405 kts | 297° |
| 2026-05-04 13:19 | -26.83791 | 152.01208 | 23411 ft | 402 kts | 297° |
| 2026-05-04 13:19 | -26.82479 | 151.98458 | 23874 ft | 399 kts | 297° |
| 2026-05-04 13:19 | -26.81315 | 151.95688 | 24235 ft | 396 kts | 290° |
| 2026-05-04 13:19 | -26.80499 | 151.92740 | 24562 ft | 397 kts | 284° |
| 2026-05-04 13:20 | -26.80023 | 151.89703 | 24895 ft | 397 kts | 277° |
| 2026-05-04 13:20 | -26.79805 | 151.86632 | 25308 ft | 394 kts | 276° |
| 2026-05-04 13:20 | -26.79600 | 151.83586 | 25729 ft | 391 kts | 276° |
| 2026-05-04 13:20 | -26.79396 | 151.80559 | 26077 ft | 390 kts | 276° |
| 2026-05-04 13:21 | -26.79186 | 151.77517 | 26115 ft | 395 kts | 276° |
| 2026-05-04 13:21 | -26.78971 | 151.74452 | 26138 ft | 395 kts | 276° |
| 2026-05-04 13:21 | -26.78753 | 151.71400 | 26130 ft | 391 kts | 276° |
| 2026-05-04 13:21 | -26.78536 | 151.68381 | 26148 ft | 388 kts | 277° |
| 2026-05-04 13:22 | -26.78316 | 151.65369 | 26145 ft | 389 kts | 277° |
| 2026-05-04 13:22 | -26.78094 | 151.62346 | 26137 ft | 390 kts | 277° |
| 2026-05-04 13:22 | -26.77872 | 151.59329 | 26146 ft | 390 kts | 277° |
| 2026-05-04 13:22 | -26.77648 | 151.56303 | 26131 ft | 390 kts | 277° |
| 2026-05-04 13:23 | -26.77423 | 151.53279 | 26130 ft | 390 kts | 277° |
| 2026-05-04 13:23 | -26.77200 | 151.50285 | 26133 ft | 390 kts | 277° |
| 2026-05-04 13:23 | -26.76974 | 151.47255 | 26134 ft | 390 kts | 277° |
| 2026-05-04 13:23 | -26.76748 | 151.44228 | 26126 ft | 390 kts | 277° |
| 2026-05-04 13:24 | -26.76520 | 151.41195 | 26130 ft | 390 kts | 277° |
| 2026-05-04 13:24 | -26.76293 | 151.38176 | 26127 ft | 390 kts | 277° |
| 2026-05-04 13:24 | -26.76065 | 151.35149 | 26128 ft | 390 kts | 277° |
| 2026-05-04 13:25 | -26.75607 | 151.29108 | 26129 ft | 389 kts | 277° |
| 2026-05-04 13:25 | -26.75378 | 151.26093 | 26118 ft | 389 kts | 277° |
| 2026-05-04 13:25 | -26.75148 | 151.23078 | 26124 ft | 388 kts | 277° |
| 2026-05-04 13:25 | -26.74917 | 151.20070 | 26120 ft | 388 kts | 277° |
| 2026-05-04 13:26 | -26.74690 | 151.17101 | 26117 ft | 387 kts | 277° |
| 2026-05-04 13:26 | -26.74458 | 151.14094 | 26116 ft | 387 kts | 277° |
| 2026-05-04 13:26 | -26.74227 | 151.11093 | 26118 ft | 387 kts | 277° |
| 2026-05-04 13:26 | -26.73994 | 151.08091 | 26113 ft | 387 kts | 277° |
| 2026-05-04 13:27 | -26.73761 | 151.05089 | 26115 ft | 387 kts | 277° |
| 2026-05-04 13:27 | -26.73528 | 151.02086 | 26114 ft | 387 kts | 277° |
| 2026-05-04 13:27 | -26.73293 | 150.99082 | 26111 ft | 387 kts | 277° |
| 2026-05-04 13:27 | -26.73061 | 150.96121 | 26114 ft | 387 kts | 277° |
| 2026-05-04 13:28 | -26.72826 | 150.93125 | 26117 ft | 387 kts | 277° |
| 2026-05-04 13:28 | -26.72591 | 150.90128 | 26109 ft | 387 kts | 277° |
| 2026-05-04 13:28 | -26.72353 | 150.87121 | 26108 ft | 387 kts | 277° |
| 2026-05-04 13:28 | -26.72116 | 150.84120 | 26109 ft | 388 kts | 277° |
| 2026-05-04 13:29 | -26.71878 | 150.81115 | 26105 ft | 388 kts | 277° |
| 2026-05-04 13:29 | -26.71639 | 150.78111 | 26106 ft | 388 kts | 277° |
| 2026-05-04 13:29 | -26.71399 | 150.75107 | 26119 ft | 388 kts | 277° |
| 2026-05-04 13:29 | -26.71159 | 150.72101 | 26117 ft | 388 kts | 277° |
| 2026-05-04 13:30 | -26.70918 | 150.69095 | 26115 ft | 388 kts | 277° |
| 2026-05-04 13:30 | -26.70677 | 150.66088 | 26106 ft | 388 kts | 277° |
| 2026-05-04 13:30 | -26.70435 | 150.63089 | 26110 ft | 387 kts | 277° |
| 2026-05-04 13:30 | -26.70192 | 150.60087 | 26113 ft | 387 kts | 277° |
| 2026-05-04 13:31 | -26.69950 | 150.57092 | 26104 ft | 387 kts | 277° |
| 2026-05-04 13:31 | -26.69706 | 150.54093 | 26112 ft | 386 kts | 277° |
| 2026-05-04 13:31 | -26.69462 | 150.51100 | 26101 ft | 386 kts | 277° |
| 2026-05-04 13:31 | -26.69218 | 150.48112 | 26105 ft | 386 kts | 278° |
| 2026-05-04 13:32 | -26.68974 | 150.45126 | 26112 ft | 386 kts | 278° |
| 2026-05-04 13:32 | -26.68728 | 150.42131 | 26112 ft | 386 kts | 278° |
| 2026-05-04 13:32 | -26.68485 | 150.39176 | 26101 ft | 386 kts | 278° |
| 2026-05-04 13:32 | -26.68239 | 150.36195 | 26099 ft | 386 kts | 278° |
| 2026-05-04 13:33 | -26.67992 | 150.33206 | 26100 ft | 385 kts | 278° |
| 2026-05-04 13:33 | -26.67744 | 150.30220 | 26113 ft | 385 kts | 278° |
| 2026-05-04 13:33 | -26.67496 | 150.27239 | 26097 ft | 385 kts | 278° |
| 2026-05-04 13:33 | -26.67248 | 150.24256 | 26097 ft | 385 kts | 278° |
| 2026-05-04 13:34 | -26.66998 | 150.21270 | 26102 ft | 385 kts | 278° |
| 2026-05-04 13:34 | -26.66748 | 150.18289 | 26107 ft | 386 kts | 278° |
| 2026-05-04 13:34 | -26.66497 | 150.15302 | 26099 ft | 386 kts | 278° |
| 2026-05-04 13:34 | -26.66247 | 150.12323 | 26107 ft | 385 kts | 278° |
| 2026-05-04 13:35 | -26.65995 | 150.09338 | 26095 ft | 385 kts | 278° |
| 2026-05-04 13:35 | -26.65489 | 150.03376 | 26094 ft | 385 kts | 278° |
| 2026-05-04 13:35 | -26.65236 | 150.00399 | 26105 ft | 385 kts | 278° |
| 2026-05-04 13:36 | -26.64982 | 149.97417 | 26098 ft | 385 kts | 278° |
| 2026-05-04 13:36 | -26.64727 | 149.94439 | 26094 ft | 385 kts | 278° |
| 2026-05-04 13:36 | -26.64472 | 149.91463 | 26092 ft | 385 kts | 278° |
| 2026-05-04 13:36 | -26.64217 | 149.88485 | 26116 ft | 385 kts | 278° |
| 2026-05-04 13:37 | -26.63960 | 149.85511 | 26110 ft | 385 kts | 278° |
| 2026-05-04 13:37 | -26.63704 | 149.82536 | 26099 ft | 384 kts | 278° |
| 2026-05-04 13:37 | -26.63450 | 149.79601 | 26098 ft | 384 kts | 278° |
| 2026-05-04 13:37 | -26.63276 | 149.77596 | 26094 ft | 384 kts | 278° |
| 2026-05-04 13:38 | -26.62935 | 149.73668 | 26090 ft | 383 kts | 278° |
| 2026-05-04 13:38 | -26.62677 | 149.70711 | 26089 ft | 382 kts | 278° |
| 2026-05-04 13:38 | -26.62419 | 149.67756 | 26091 ft | 382 kts | 278° |
| 2026-05-04 13:38 | -26.62160 | 149.64807 | 26093 ft | 381 kts | 278° |
| 2026-05-04 13:39 | -26.61902 | 149.61858 | 26095 ft | 381 kts | 278° |
| 2026-05-04 13:39 | -26.61642 | 149.58904 | 26096 ft | 381 kts | 278° |
| 2026-05-04 13:39 | -26.61381 | 149.55957 | 26095 ft | 381 kts | 278° |
| 2026-05-04 13:39 | -26.61120 | 149.53007 | 26092 ft | 382 kts | 278° |
| 2026-05-04 13:40 | -26.60858 | 149.50052 | 26090 ft | 382 kts | 278° |
| 2026-05-04 13:40 | -26.60596 | 149.47096 | 26092 ft | 382 kts | 278° |
| 2026-05-04 13:40 | -26.60332 | 149.44139 | 26090 ft | 383 kts | 278° |
| 2026-05-04 13:40 | -26.60071 | 149.41214 | 26091 ft | 383 kts | 278° |
| 2026-05-04 13:41 | -26.59803 | 149.38214 | 26095 ft | 383 kts | 278° |
| 2026-05-04 13:41 | -26.59540 | 149.35286 | 26091 ft | 384 kts | 278° |
| 2026-05-04 13:41 | -26.59274 | 149.32323 | 26091 ft | 384 kts | 278° |
| 2026-05-04 13:42 | -26.58738 | 149.26385 | 26093 ft | 384 kts | 278° |
| 2026-05-04 13:42 | -26.58469 | 149.23412 | 26093 ft | 384 kts | 278° |
| 2026-05-04 13:42 | -26.58200 | 149.20446 | 26091 ft | 384 kts | 278° |
| 2026-05-04 13:42 | -26.57931 | 149.17484 | 26091 ft | 383 kts | 278° |
| 2026-05-04 13:43 | -26.57661 | 149.14521 | 26093 ft | 383 kts | 278° |
| 2026-05-04 13:43 | -26.57390 | 149.11558 | 26092 ft | 383 kts | 278° |
| 2026-05-04 13:43 | -26.57119 | 149.08603 | 26093 ft | 383 kts | 278° |
| 2026-05-04 13:43 | -26.56848 | 149.05645 | 26092 ft | 383 kts | 278° |
| 2026-05-04 13:44 | -26.56576 | 149.02692 | 26089 ft | 383 kts | 278° |
| 2026-05-04 13:44 | -26.56304 | 148.99745 | 26088 ft | 383 kts | 278° |
| 2026-05-04 13:44 | -26.56034 | 148.96824 | 26094 ft | 382 kts | 278° |
| 2026-05-04 13:44 | -26.55760 | 148.93867 | 26092 ft | 382 kts | 278° |
| 2026-05-04 13:45 | -26.55486 | 148.90909 | 26099 ft | 383 kts | 278° |
| 2026-05-04 13:45 | -26.55211 | 148.87953 | 26098 ft | 383 kts | 278° |
| 2026-05-04 13:45 | -26.54936 | 148.84995 | 26097 ft | 383 kts | 278° |
| 2026-05-04 13:45 | -26.54660 | 148.82041 | 26100 ft | 383 kts | 279° |
| 2026-05-04 13:46 | -26.54382 | 148.79079 | 26097 ft | 383 kts | 279° |
| 2026-05-04 13:46 | -26.54081 | 148.76125 | 26097 ft | 382 kts | 280° |
| 2026-05-04 13:46 | -26.53715 | 148.73187 | 26106 ft | 382 kts | 281° |
| 2026-05-04 13:46 | -26.53322 | 148.70256 | 26105 ft | 382 kts | 281° |
| 2026-05-04 13:47 | -26.52922 | 148.67321 | 26094 ft | 382 kts | 281° |
| 2026-05-04 13:47 | -26.52524 | 148.64389 | 26094 ft | 382 kts | 281° |
| 2026-05-04 13:47 | -26.52129 | 148.61462 | 26094 ft | 382 kts | 281° |
| 2026-05-04 13:47 | -26.51738 | 148.58532 | 26100 ft | 381 kts | 281° |
| 2026-05-04 13:48 | -26.51349 | 148.55602 | 26100 ft | 381 kts | 281° |
| 2026-05-04 13:48 | -26.50962 | 148.52679 | 26101 ft | 381 kts | 281° |
| 2026-05-04 13:48 | -26.50575 | 148.49750 | 26100 ft | 381 kts | 281° |
| 2026-05-04 13:48 | -26.50189 | 148.46828 | 26106 ft | 381 kts | 281° |
| 2026-05-04 13:49 | -26.49802 | 148.43899 | 26107 ft | 380 kts | 281° |
| 2026-05-04 13:49 | -26.49420 | 148.41018 | 26104 ft | 380 kts | 281° |
| 2026-05-04 13:49 | -26.49033 | 148.38101 | 26098 ft | 380 kts | 281° |
| 2026-05-04 13:49 | -26.48646 | 148.35181 | 26103 ft | 380 kts | 281° |
| 2026-05-04 13:50 | -26.48258 | 148.32265 | 26106 ft | 379 kts | 281° |
| 2026-05-04 13:50 | -26.47869 | 148.29349 | 26103 ft | 379 kts | 281° |
| 2026-05-04 13:50 | -26.47480 | 148.26435 | 26104 ft | 379 kts | 281° |
| 2026-05-04 13:50 | -26.47092 | 148.23528 | 26102 ft | 379 kts | 281° |
| 2026-05-04 13:51 | -26.46702 | 148.20620 | 26104 ft | 379 kts | 281° |
| 2026-05-04 13:51 | -26.46313 | 148.17714 | 26114 ft | 378 kts | 281° |
| 2026-05-04 13:51 | -26.46053 | 148.15783 | 26110 ft | 378 kts | 281° |
| 2026-05-04 13:51 | -26.45536 | 148.11938 | 26110 ft | 378 kts | 281° |
| 2026-05-04 13:52 | -26.44881 | 148.07075 | 26100 ft | 378 kts | 281° |
| 2026-05-04 13:52 | -26.44362 | 148.03236 | 26106 ft | 378 kts | 281° |
| 2026-05-04 13:52 | -26.43970 | 148.00341 | 26105 ft | 377 kts | 281° |
| 2026-05-04 13:53 | -26.43705 | 147.98389 | 26113 ft | 377 kts | 281° |
| 2026-05-04 13:53 | -26.43312 | 147.95490 | 26111 ft | 377 kts | 281° |
| 2026-05-04 13:53 | -26.42918 | 147.92595 | 26115 ft | 377 kts | 281° |
| 2026-05-04 13:54 | -26.42130 | 147.86810 | 26121 ft | 377 kts | 282° |
| 2026-05-04 13:54 | -26.41737 | 147.83934 | 26112 ft | 376 kts | 282° |
| 2026-05-04 13:54 | -26.40951 | 147.78184 | 26103 ft | 374 kts | 282° |
| 2026-05-04 13:55 | -26.40562 | 147.75350 | 26109 ft | 373 kts | 282° |
| 2026-05-04 13:55 | -26.39775 | 147.69627 | 26113 ft | 372 kts | 282° |
| 2026-05-04 13:55 | -26.39382 | 147.66772 | 26116 ft | 372 kts | 282° |
| 2026-05-04 13:56 | -26.38989 | 147.63925 | 26129 ft | 372 kts | 282° |
| 2026-05-04 13:56 | -26.38595 | 147.61077 | 26120 ft | 372 kts | 282° |
| 2026-05-04 13:56 | -26.37805 | 147.55378 | 26114 ft | 371 kts | 282° |
| 2026-05-04 13:57 | -26.37410 | 147.52534 | 26115 ft | 371 kts | 282° |
| 2026-05-04 13:57 | -26.37015 | 147.49689 | 26115 ft | 371 kts | 282° |
| 2026-05-04 13:58 | -26.35826 | 147.41164 | 26118 ft | 371 kts | 282° |
| 2026-05-04 13:58 | -26.35030 | 147.35481 | 26119 ft | 371 kts | 282° |
| 2026-05-04 13:58 | -26.34631 | 147.32635 | 26120 ft | 372 kts | 282° |
| 2026-05-04 13:59 | -26.34229 | 147.29781 | 26136 ft | 375 kts | 282° |
| 2026-05-04 13:59 | -26.33820 | 147.26877 | 26221 ft | 381 kts | 282° |
| 2026-05-04 13:59 | -26.32995 | 147.21036 | 26743 ft | 384 kts | 282° |
| 2026-05-04 14:00 | -26.32583 | 147.18112 | 27206 ft | 380 kts | 282° |
| 2026-05-04 14:00 | -26.31764 | 147.12318 | 27977 ft | 377 kts | 282° |
| 2026-05-04 14:00 | -26.31354 | 147.09430 | 28117 ft | 379 kts | 282° |
| 2026-05-04 14:01 | -26.30525 | 147.03615 | 28101 ft | 379 kts | 282° |
| 2026-05-04 14:02 | -26.29295 | 146.94993 | 28130 ft | 375 kts | 282° |
| 2026-05-04 14:02 | -26.28469 | 146.89237 | 28120 ft | 376 kts | 282° |
| 2026-05-04 14:03 | -26.27647 | 146.83521 | 28122 ft | 375 kts | 282° |
| 2026-05-04 14:03 | -26.26821 | 146.77789 | 28121 ft | 376 kts | 282° |
| 2026-05-04 14:04 | -26.25541 | 146.68964 | 28268 ft | 393 kts | 282° |
| 2026-05-04 14:04 | -26.24658 | 146.62893 | 28490 ft | 399 kts | 282° |
| 2026-05-04 14:05 | -26.23775 | 146.56814 | 29205 ft | 394 kts | 282° |
| 2026-05-04 14:05 | -26.23339 | 146.53814 | 29632 ft | 391 kts | 282° |
| 2026-05-04 14:05 | -26.22904 | 146.50835 | 29987 ft | 389 kts | 282° |
| 2026-05-04 14:06 | -26.22470 | 146.47868 | 30287 ft | 387 kts | 282° |
| 2026-05-04 14:06 | -26.22036 | 146.44912 | 30565 ft | 386 kts | 282° |
| 2026-05-04 14:06 | -26.21603 | 146.41966 | 30846 ft | 384 kts | 282° |
| 2026-05-04 14:06 | -26.21172 | 146.39037 | 31113 ft | 383 kts | 283° |
| 2026-05-04 14:07 | -26.20742 | 146.36120 | 31398 ft | 381 kts | 283° |
| 2026-05-04 14:07 | -26.20313 | 146.33212 | 31680 ft | 379 kts | 283° |
| 2026-05-04 14:07 | -26.19886 | 146.30322 | 31942 ft | 378 kts | 283° |
| 2026-05-04 14:07 | -26.19459 | 146.27436 | 32181 ft | 377 kts | 283° |
| 2026-05-04 14:08 | -26.19032 | 146.24550 | 32451 ft | 376 kts | 283° |
| 2026-05-04 14:08 | -26.18612 | 146.21724 | 32734 ft | 374 kts | 283° |
| 2026-05-04 14:08 | -26.18210 | 146.19013 | 32989 ft | 372 kts | 283° |
| 2026-05-04 14:08 | -26.17787 | 146.16170 | 33230 ft | 371 kts | 283° |
| 2026-05-04 14:09 | -26.16943 | 146.10514 | 33717 ft | 369 kts | 283° |
| 2026-05-04 14:09 | -26.16523 | 146.07704 | 33952 ft | 368 kts | 283° |
| 2026-05-04 14:10 | -26.15685 | 146.02103 | 34360 ft | 366 kts | 284° |
| 2026-05-04 14:10 | -26.15265 | 145.99306 | 34507 ft | 366 kts | 284° |
| 2026-05-04 14:10 | -26.14844 | 145.96506 | 34675 ft | 366 kts | 284° |
| 2026-05-04 14:10 | -26.14425 | 145.93718 | 34849 ft | 365 kts | 284° |
| 2026-05-04 14:11 | -26.14006 | 145.90936 | 35016 ft | 364 kts | 284° |
| 2026-05-04 14:11 | -26.13168 | 145.85393 | 35194 ft | 367 kts | 284° |
| 2026-05-04 14:11 | -26.12742 | 145.82581 | 35231 ft | 370 kts | 284° |
| 2026-05-04 14:12 | -26.11883 | 145.76913 | 35422 ft | 371 kts | 284° |
| 2026-05-04 14:12 | -26.11026 | 145.71264 | 35787 ft | 368 kts | 284° |
| 2026-05-04 14:13 | -26.10601 | 145.68465 | 35996 ft | 366 kts | 284° |
| 2026-05-04 14:13 | -26.10178 | 145.65684 | 36131 ft | 364 kts | 284° |
| 2026-05-04 14:13 | -26.09753 | 145.62903 | 36132 ft | 363 kts | 284° |
| 2026-05-04 14:14 | -26.08909 | 145.57386 | 36141 ft | 360 kts | 284° |
| 2026-05-04 14:14 | -26.07655 | 145.49214 | 36153 ft | 357 kts | 284° |
| 2026-05-04 14:15 | -26.05977 | 145.38336 | 36152 ft | 356 kts | 284° |
| 2026-05-04 14:16 | -26.04713 | 145.30176 | 36151 ft | 357 kts | 284° |
| 2026-05-04 14:17 | -26.03440 | 145.21991 | 36157 ft | 359 kts | 285° |
| 2026-05-04 14:18 | -26.02152 | 145.13736 | 36156 ft | 363 kts | 285° |
| 2026-05-04 14:19 | -26.00415 | 145.02644 | 36151 ft | 367 kts | 285° |
| 2026-05-04 14:19 | -25.99500 | 144.97060 | 36149 ft | 367 kts | 286° |
| 2026-05-04 14:20 | -25.98481 | 144.91495 | 36159 ft | 367 kts | 286° |
| 2026-05-04 14:20 | -25.97451 | 144.85937 | 36155 ft | 367 kts | 286° |
| 2026-05-04 14:21 | -25.95928 | 144.77660 | 36155 ft | 366 kts | 286° |
| 2026-05-04 14:21 | -25.94916 | 144.72147 | 36161 ft | 366 kts | 287° |
| 2026-05-04 14:22 | -25.93908 | 144.66657 | 36154 ft | 365 kts | 287° |
| 2026-05-04 14:22 | -25.92897 | 144.61166 | 36148 ft | 363 kts | 287° |
| 2026-05-04 14:23 | -25.91378 | 144.52936 | 36150 ft | 361 kts | 287° |
| 2026-05-04 14:24 | -25.90398 | 144.47641 | 36164 ft | 360 kts | 287° |
| 2026-05-04 14:24 | -25.89389 | 144.42197 | 36158 ft | 359 kts | 287° |
| 2026-05-04 14:25 | -25.88379 | 144.36766 | 36155 ft | 358 kts | 287° |
| 2026-05-04 14:25 | -25.86866 | 144.28652 | 36161 ft | 358 kts | 287° |
| 2026-05-04 14:26 | -25.85853 | 144.23233 | 36178 ft | 359 kts | 287° |
| 2026-05-04 14:26 | -25.84842 | 144.17838 | 36168 ft | 359 kts | 287° |
| 2026-05-04 14:27 | -25.83823 | 144.12408 | 36166 ft | 359 kts | 287° |
| 2026-05-04 14:27 | -25.82802 | 144.06979 | 36153 ft | 359 kts | 287° |
| 2026-05-04 14:28 | -25.81780 | 144.01558 | 36156 ft | 359 kts | 287° |
| 2026-05-04 14:28 | -25.80754 | 143.96128 | 36167 ft | 359 kts | 287° |
| 2026-05-04 14:29 | -25.78693 | 143.85253 | 36155 ft | 360 kts | 287° |
| 2026-05-04 14:30 | -25.77658 | 143.79808 | 36165 ft | 361 kts | 287° |
| 2026-05-04 14:31 | -25.76105 | 143.71661 | 36165 ft | 362 kts | 287° |
| 2026-05-04 14:32 | -25.74011 | 143.60720 | 36161 ft | 363 kts | 287° |
| 2026-05-04 14:32 | -25.72960 | 143.55244 | 36161 ft | 363 kts | 287° |
| 2026-05-04 14:33 | -25.71906 | 143.49765 | 36167 ft | 364 kts | 287° |
| 2026-05-04 14:33 | -25.70846 | 143.44266 | 36156 ft | 364 kts | 287° |
| 2026-05-04 14:34 | -25.69785 | 143.38771 | 36156 ft | 365 kts | 287° |
| 2026-05-04 14:34 | -25.68720 | 143.33271 | 36161 ft | 365 kts | 287° |
| 2026-05-04 14:35 | -25.67660 | 143.27806 | 36166 ft | 365 kts | 287° |
| 2026-05-04 14:35 | -25.66591 | 143.22306 | 36173 ft | 365 kts | 288° |
| 2026-05-04 14:36 | -25.65518 | 143.16797 | 36165 ft | 365 kts | 288° |
| 2026-05-04 14:36 | -25.64444 | 143.11297 | 36163 ft | 365 kts | 288° |
| 2026-05-04 14:37 | -25.63371 | 143.05807 | 36166 ft | 364 kts | 288° |
| 2026-05-04 14:37 | -25.62297 | 143.00329 | 36172 ft | 363 kts | 288° |
| 2026-05-04 14:38 | -25.61223 | 142.94865 | 36168 ft | 363 kts | 288° |
| 2026-05-04 14:38 | -25.60148 | 142.89403 | 36167 ft | 362 kts | 288° |
| 2026-05-04 14:39 | -25.59073 | 142.83954 | 36168 ft | 362 kts | 288° |
| 2026-05-04 14:39 | -25.57997 | 142.78509 | 36170 ft | 362 kts | 288° |
| 2026-05-04 14:40 | -25.56384 | 142.70373 | 36170 ft | 362 kts | 288° |
| 2026-05-04 14:40 | -25.55300 | 142.64918 | 36169 ft | 363 kts | 288° |
| 2026-05-04 14:41 | -25.54397 | 142.60381 | 36168 ft | 363 kts | 288° |
| 2026-05-04 14:42 | -25.52215 | 142.49450 | 36169 ft | 363 kts | 288° |
| 2026-05-04 14:42 | -25.51119 | 142.43979 | 36175 ft | 364 kts | 288° |
| 2026-05-04 14:43 | -25.50022 | 142.38510 | 36173 ft | 364 kts | 288° |
| 2026-05-04 14:43 | -25.48922 | 142.33039 | 36177 ft | 364 kts | 288° |
| 2026-05-04 14:44 | -25.47826 | 142.27599 | 36186 ft | 364 kts | 288° |
| 2026-05-04 14:44 | -25.46714 | 142.22090 | 36178 ft | 364 kts | 288° |
| 2026-05-04 14:45 | -25.45613 | 142.16646 | 36178 ft | 364 kts | 288° |
| 2026-05-04 14:45 | -25.44504 | 142.11172 | 36178 ft | 364 kts | 288° |
| 2026-05-04 14:46 | -25.43401 | 142.05744 | 36181 ft | 363 kts | 288° |
| 2026-05-04 14:46 | -25.42294 | 142.00300 | 36185 ft | 362 kts | 288° |
| 2026-05-04 14:47 | -25.41196 | 141.94911 | 36184 ft | 360 kts | 288° |
| 2026-05-04 14:47 | -25.40095 | 141.89522 | 36183 ft | 359 kts | 288° |
| 2026-05-04 14:48 | -25.38994 | 141.84146 | 36185 ft | 358 kts | 288° |
| 2026-05-04 14:48 | -25.37893 | 141.78782 | 36182 ft | 358 kts | 288° |
| 2026-05-04 14:49 | -25.36789 | 141.73409 | 36189 ft | 359 kts | 288° |
| 2026-05-04 14:49 | -25.35679 | 141.68022 | 36188 ft | 360 kts | 288° |
| 2026-05-04 14:50 | -25.34568 | 141.62640 | 36187 ft | 362 kts | 288° |
| 2026-05-04 14:50 | -25.33443 | 141.57198 | 36186 ft | 364 kts | 288° |
| 2026-05-04 14:51 | -25.32310 | 141.51727 | 36191 ft | 366 kts | 288° |
| 2026-05-04 14:51 | -25.31170 | 141.46235 | 36188 ft | 367 kts | 288° |
| 2026-05-04 14:52 | -25.30024 | 141.40720 | 36187 ft | 368 kts | 288° |
| 2026-05-04 14:52 | -25.28876 | 141.35210 | 36186 ft | 368 kts | 288° |
| 2026-05-04 14:53 | -25.27727 | 141.29704 | 36189 ft | 368 kts | 288° |
| 2026-05-04 14:53 | -25.26582 | 141.24226 | 36189 ft | 368 kts | 288° |
| 2026-05-04 14:54 | -25.25429 | 141.18726 | 36191 ft | 367 kts | 289° |
| 2026-05-04 14:54 | -25.24274 | 141.13227 | 36190 ft | 367 kts | 289° |
| 2026-05-04 14:55 | -25.23120 | 141.07739 | 36187 ft | 367 kts | 289° |
| 2026-05-04 14:55 | -25.21964 | 141.02258 | 36185 ft | 366 kts | 289° |
| 2026-05-04 14:56 | -25.20807 | 140.96778 | 36191 ft | 366 kts | 289° |
| 2026-05-04 14:56 | -25.19648 | 140.91300 | 36192 ft | 366 kts | 289° |
| 2026-05-04 14:57 | -25.18487 | 140.85827 | 36198 ft | 366 kts | 289° |
| 2026-05-04 14:57 | -25.17324 | 140.80352 | 36190 ft | 366 kts | 289° |
| 2026-05-04 14:58 | -25.16165 | 140.74909 | 36189 ft | 366 kts | 289° |
| 2026-05-04 14:58 | -25.14996 | 140.69427 | 36195 ft | 367 kts | 289° |
| 2026-05-04 14:59 | -25.13827 | 140.63953 | 36192 ft | 366 kts | 288° |
| 2026-05-04 15:00 | -25.12070 | 140.55750 | 36193 ft | 366 kts | 288° |
| 2026-05-04 15:00 | -25.10898 | 140.50288 | 36199 ft | 366 kts | 288° |
| 2026-05-04 15:01 | -25.09141 | 140.42127 | 36195 ft | 366 kts | 288° |
| 2026-05-04 15:01 | -25.07963 | 140.36664 | 36197 ft | 366 kts | 288° |
| 2026-05-04 15:02 | -25.06781 | 140.31195 | 36196 ft | 366 kts | 288° |
| 2026-05-04 15:02 | -25.05598 | 140.25729 | 36196 ft | 367 kts | 288° |
| 2026-05-04 15:03 | -25.04411 | 140.20257 | 36199 ft | 367 kts | 288° |
| 2026-05-04 15:03 | -25.03220 | 140.14774 | 36197 ft | 367 kts | 288° |
| 2026-05-04 15:04 | -25.02027 | 140.09291 | 36199 ft | 368 kts | 288° |
| 2026-05-04 15:04 | -25.00830 | 140.03803 | 36199 ft | 368 kts | 288° |
| 2026-05-04 15:05 | -25.00019 | 139.98190 | 36196 ft | 376 kts | 279° |
| 2026-05-04 15:05 | -25.00087 | 139.92425 | 36207 ft | 379 kts | 277° |
| 2026-05-04 15:06 | -25.00200 | 139.86607 | 36199 ft | 379 kts | 277° |
| 2026-05-04 15:07 | -25.00349 | 139.77898 | 36211 ft | 379 kts | 277° |
| 2026-05-04 15:07 | -25.00438 | 139.72103 | 36201 ft | 378 kts | 277° |
| 2026-05-04 15:08 | -25.00524 | 139.66306 | 36201 ft | 378 kts | 277° |
| 2026-05-04 15:08 | -25.00606 | 139.60521 | 36207 ft | 377 kts | 277° |
| 2026-05-04 15:09 | -25.00684 | 139.54922 | 36200 ft | 377 kts | 277° |
| 2026-05-04 15:09 | -25.00762 | 139.49142 | 36218 ft | 377 kts | 277° |
| 2026-05-04 15:10 | -25.00875 | 139.40456 | 36207 ft | 378 kts | 277° |
| 2026-05-04 15:11 | -25.00983 | 139.31768 | 36205 ft | 378 kts | 277° |
| 2026-05-04 15:11 | -25.01053 | 139.25974 | 36208 ft | 378 kts | 277° |
| 2026-05-04 15:12 | -25.01120 | 139.20174 | 36211 ft | 378 kts | 277° |
| 2026-05-04 15:12 | -25.01184 | 139.14380 | 36205 ft | 378 kts | 277° |
| 2026-05-04 15:13 | -25.01247 | 139.08581 | 36203 ft | 378 kts | 277° |
| 2026-05-04 15:13 | -25.01307 | 139.02823 | 36205 ft | 378 kts | 277° |
| 2026-05-04 15:14 | -25.01365 | 138.97031 | 36208 ft | 378 kts | 277° |
| 2026-05-04 15:14 | -25.01421 | 138.91222 | 36209 ft | 378 kts | 277° |
| 2026-05-04 15:15 | -25.01475 | 138.85412 | 36216 ft | 379 kts | 277° |
| 2026-05-04 15:15 | -25.01526 | 138.79600 | 36222 ft | 380 kts | 276° |
| 2026-05-04 15:16 | -25.01599 | 138.70892 | 36211 ft | 381 kts | 276° |
| 2026-05-04 15:17 | -25.01667 | 138.62120 | 36205 ft | 382 kts | 276° |
| 2026-05-04 15:17 | -25.01731 | 138.53315 | 36210 ft | 383 kts | 276° |
| 2026-05-04 15:18 | -25.01770 | 138.47444 | 36211 ft | 384 kts | 276° |
| 2026-05-04 15:19 | -25.01825 | 138.38591 | 36213 ft | 385 kts | 276° |
| 2026-05-04 15:19 | -25.01875 | 138.29728 | 36214 ft | 386 kts | 276° |
| 2026-05-04 15:20 | -25.01906 | 138.23850 | 36215 ft | 386 kts | 276° |
| 2026-05-04 15:20 | -25.01934 | 138.17894 | 36209 ft | 386 kts | 276° |
| 2026-05-04 15:21 | -25.01960 | 138.12005 | 36232 ft | 387 kts | 276° |
| 2026-05-04 15:22 | -25.01993 | 138.03097 | 36214 ft | 388 kts | 276° |
| 2026-05-04 15:22 | -25.02023 | 137.94166 | 36219 ft | 389 kts | 275° |
| 2026-05-04 15:23 | -25.02039 | 137.88203 | 36218 ft | 389 kts | 275° |
| 2026-05-04 15:23 | -25.02053 | 137.82232 | 36218 ft | 390 kts | 275° |
| 2026-05-04 15:24 | -25.02074 | 137.70268 | 36219 ft | 390 kts | 275° |
| 2026-05-04 15:25 | -25.02081 | 137.64306 | 36222 ft | 391 kts | 275° |
| 2026-05-04 15:26 | -25.02087 | 137.55308 | 36217 ft | 392 kts | 275° |
| 2026-05-04 15:26 | -25.02088 | 137.46334 | 36249 ft | 392 kts | 275° |
| 2026-05-04 15:27 | -25.02083 | 137.37291 | 36220 ft | 393 kts | 275° |
| 2026-05-04 15:28 | -25.02074 | 137.29259 | 36220 ft | 394 kts | 275° |
| 2026-05-04 15:29 | -25.02059 | 137.20194 | 36228 ft | 394 kts | 275° |
| 2026-05-04 15:30 | -25.02002 | 136.99089 | 36226 ft | 394 kts | 275° |
| 2026-05-04 15:31 | -25.01968 | 136.90036 | 36231 ft | 393 kts | 275° |
| 2026-05-04 15:32 | -25.01900 | 136.74936 | 36237 ft | 394 kts | 274° |
| 2026-05-04 15:34 | -25.01829 | 136.59805 | 36231 ft | 395 kts | 274° |
| 2026-05-04 15:34 | -25.01772 | 136.50750 | 36227 ft | 395 kts | 274° |
| 2026-05-04 15:35 | -25.01693 | 136.41644 | 36230 ft | 396 kts | 274° |
| 2026-05-04 15:36 | -25.01624 | 136.32512 | 36226 ft | 397 kts | 274° |
| 2026-05-04 15:36 | -25.01577 | 136.26413 | 36233 ft | 398 kts | 274° |
| 2026-05-04 15:37 | -25.01526 | 136.20315 | 36230 ft | 398 kts | 274° |
| 2026-05-04 15:37 | -25.01471 | 136.14185 | 36239 ft | 400 kts | 274° |
| 2026-05-04 15:38 | -25.01415 | 136.08090 | 36237 ft | 400 kts | 274° |
| 2026-05-04 15:38 | -25.01356 | 136.01947 | 36234 ft | 401 kts | 274° |
| 2026-05-04 15:39 | -25.01294 | 135.95807 | 36229 ft | 400 kts | 273° |
| 2026-05-04 15:40 | -25.01197 | 135.86627 | 36230 ft | 398 kts | 274° |
| 2026-05-04 15:40 | -25.01129 | 135.80526 | 36240 ft | 398 kts | 274° |
| 2026-05-04 15:41 | -25.01059 | 135.74461 | 36239 ft | 398 kts | 273° |
| 2026-05-04 15:41 | -25.00986 | 135.68366 | 36240 ft | 398 kts | 273° |
| 2026-05-04 15:42 | -25.00910 | 135.62254 | 36238 ft | 398 kts | 273° |
| 2026-05-04 15:42 | -25.00832 | 135.56141 | 36253 ft | 399 kts | 273° |
| 2026-05-04 15:43 | -25.00751 | 135.50015 | 36249 ft | 400 kts | 273° |
| 2026-05-04 15:43 | -25.00668 | 135.43871 | 36245 ft | 401 kts | 273° |
| 2026-05-04 15:44 | -25.00582 | 135.37715 | 36237 ft | 402 kts | 272° |
| 2026-05-04 15:44 | -25.00494 | 135.31589 | 36243 ft | 402 kts | 272° |
| 2026-05-04 15:45 | -25.00402 | 135.25418 | 36249 ft | 403 kts | 272° |
| 2026-05-04 15:45 | -25.00308 | 135.19231 | 36245 ft | 404 kts | 272° |
| 2026-05-04 15:46 | -25.00212 | 135.13040 | 36244 ft | 404 kts | 272° |
| 2026-05-04 15:46 | -25.00113 | 135.06847 | 36245 ft | 404 kts | 272° |
| 2026-05-04 15:47 | -24.99991 | 135.00665 | 36247 ft | 403 kts | 275° |
| 2026-05-04 15:47 | -24.99057 | 134.94593 | 36251 ft | 402 kts | 282° |
| 2026-05-04 15:48 | -24.97927 | 134.88566 | 36247 ft | 401 kts | 281° |
| 2026-05-04 15:48 | -24.96255 | 134.79515 | 36246 ft | 401 kts | 281° |
| 2026-05-04 15:49 | -24.95148 | 134.73496 | 36244 ft | 401 kts | 281° |
| 2026-05-04 15:49 | -24.94040 | 134.67473 | 36248 ft | 401 kts | 281° |
| 2026-05-04 15:50 | -24.92935 | 134.61485 | 36243 ft | 401 kts | 281° |
| 2026-05-04 15:50 | -24.91821 | 134.55462 | 36246 ft | 401 kts | 281° |
| 2026-05-04 15:51 | -24.90705 | 134.49441 | 36247 ft | 401 kts | 281° |
| 2026-05-04 15:51 | -24.89588 | 134.43429 | 36249 ft | 401 kts | 281° |
| 2026-05-04 15:52 | -24.88465 | 134.37400 | 36247 ft | 401 kts | 281° |
| 2026-05-04 15:52 | -24.87340 | 134.31372 | 36252 ft | 402 kts | 281° |
| 2026-05-04 15:53 | -24.86218 | 134.25377 | 36255 ft | 402 kts | 281° |
| 2026-05-04 15:53 | -24.85085 | 134.19335 | 36251 ft | 403 kts | 281° |
| 2026-05-04 15:54 | -24.83950 | 134.13295 | 36250 ft | 403 kts | 281° |
| 2026-05-04 15:54 | -24.82810 | 134.07244 | 36252 ft | 403 kts | 281° |
| 2026-05-04 15:55 | -24.81667 | 134.01192 | 36255 ft | 404 kts | 281° |
| 2026-05-04 15:55 | -24.80527 | 133.95169 | 36256 ft | 404 kts | 281° |
| 2026-05-04 15:56 | -24.79376 | 133.89106 | 36251 ft | 405 kts | 281° |
| 2026-05-04 15:56 | -24.78517 | 133.84583 | 36254 ft | 405 kts | 281° |
| 2026-05-04 15:57 | -24.77360 | 133.78513 | 36248 ft | 405 kts | 281° |
| 2026-05-04 15:57 | -24.76199 | 133.72433 | 36251 ft | 405 kts | 281° |
| 2026-05-04 15:58 | -24.75039 | 133.66372 | 36253 ft | 405 kts | 281° |
| 2026-05-04 15:58 | -24.73874 | 133.60297 | 36255 ft | 406 kts | 281° |
| 2026-05-04 15:59 | -24.72706 | 133.54218 | 36253 ft | 406 kts | 281° |
| 2026-05-04 15:59 | -24.71534 | 133.48139 | 36251 ft | 406 kts | 281° |
| 2026-05-04 16:00 | -24.70368 | 133.42101 | 36260 ft | 406 kts | 281° |
| 2026-05-04 16:00 | -24.69195 | 133.36038 | 36251 ft | 406 kts | 281° |
| 2026-05-04 16:01 | -24.68018 | 133.29973 | 36254 ft | 406 kts | 281° |
| 2026-05-04 16:01 | -24.66836 | 133.23893 | 36250 ft | 405 kts | 281° |
| 2026-05-04 16:02 | -24.65654 | 133.17826 | 36255 ft | 406 kts | 281° |
| 2026-05-04 16:03 | -24.63882 | 133.08759 | 36256 ft | 406 kts | 281° |
| 2026-05-04 16:03 | -24.62689 | 133.02676 | 36253 ft | 407 kts | 281° |
| 2026-05-04 16:04 | -24.61495 | 132.96596 | 36242 ft | 406 kts | 281° |
| 2026-05-04 16:04 | -24.59701 | 132.87488 | 36248 ft | 407 kts | 281° |
| 2026-05-04 16:05 | -24.58500 | 132.81404 | 36253 ft | 407 kts | 281° |
| 2026-05-04 16:06 | -24.56898 | 132.73314 | 36254 ft | 407 kts | 281° |
| 2026-05-04 16:07 | -24.54483 | 132.61163 | 36261 ft | 407 kts | 281° |
| 2026-05-04 16:08 | -24.52058 | 132.49017 | 36247 ft | 407 kts | 281° |
| 2026-05-04 16:09 | -24.49011 | 132.33828 | 36247 ft | 407 kts | 280° |
| 2026-05-04 16:10 | -24.46560 | 132.21674 | 36253 ft | 408 kts | 280° |
| 2026-05-04 16:11 | -24.44106 | 132.09554 | 36236 ft | 408 kts | 280° |
| 2026-05-04 16:12 | -24.40432 | 131.91507 | 36232 ft | 408 kts | 280° |
| 2026-05-04 16:13 | -24.37941 | 131.79333 | 36235 ft | 409 kts | 280° |
| 2026-05-04 16:14 | -24.35437 | 131.67152 | 36222 ft | 409 kts | 280° |
| 2026-05-04 16:16 | -24.32304 | 131.51982 | 36225 ft | 409 kts | 280° |
| 2026-05-04 16:17 | -24.29360 | 131.37802 | 36217 ft | 409 kts | 280° |
| 2026-05-04 16:18 | -24.26829 | 131.25664 | 36193 ft | 409 kts | 280° |
| 2026-05-04 16:19 | -24.23649 | 131.10487 | 36227 ft | 408 kts | 279° |
| 2026-05-04 16:20 | -24.20464 | 130.95364 | 36217 ft | 409 kts | 279° |
| 2026-05-04 16:22 | -24.17251 | 130.80187 | 36217 ft | 409 kts | 279° |
| 2026-05-04 16:23 | -24.13380 | 130.62010 | 36208 ft | 409 kts | 280° |
| 2026-05-04 16:25 | -24.09490 | 130.43850 | 36209 ft | 409 kts | 280° |
| 2026-05-04 16:26 | -24.04916 | 130.22639 | 36204 ft | 409 kts | 279° |
| 2026-05-04 16:28 | -24.01638 | 130.07523 | 36197 ft | 409 kts | 280° |
| 2026-05-04 16:29 | -24.00203 | 129.86160 | 36200 ft | 404 kts | 267° |
| 2026-05-04 16:31 | -24.00446 | 129.70766 | 36204 ft | 405 kts | 267° |
| 2026-05-04 16:32 | -24.00699 | 129.52304 | 36201 ft | 406 kts | 267° |
| 2026-05-04 16:33 | -24.00856 | 129.39956 | 36199 ft | 406 kts | 267° |
| 2026-05-04 16:34 | -24.00967 | 129.30737 | 36196 ft | 406 kts | 267° |
| 2026-05-04 16:35 | -24.01173 | 129.12235 | 36197 ft | 405 kts | 267° |
| 2026-05-04 16:36 | -24.01236 | 129.06076 | 36192 ft | 405 kts | 267° |
| 2026-05-04 16:39 | -24.01380 | 128.91125 | 36185 ft | 404 kts | 267° |
| 2026-05-04 16:40 | -24.01487 | 128.78921 | 36189 ft | 402 kts | 267° |
| 2026-05-04 16:41 | -24.01608 | 128.63631 | 36181 ft | 401 kts | 267° |
| 2026-05-04 16:43 | -24.01712 | 128.48424 | 36183 ft | 401 kts | 267° |
| 2026-05-04 16:43 | -24.01768 | 128.39294 | 36189 ft | 400 kts | 267° |
| 2026-05-04 16:45 | -24.01854 | 128.22984 | 36189 ft | 400 kts | 267° |
| 2026-05-04 16:46 | -24.01918 | 128.07810 | 36186 ft | 399 kts | 267° |
| 2026-05-04 16:47 | -24.01959 | 127.95665 | 36183 ft | 399 kts | 267° |
| 2026-05-04 16:48 | -24.01990 | 127.83534 | 36178 ft | 398 kts | 267° |
| 2026-05-04 16:49 | -24.02012 | 127.71414 | 36193 ft | 398 kts | 267° |
| 2026-05-04 16:50 | -24.02024 | 127.59310 | 36183 ft | 398 kts | 267° |
| 2026-05-04 16:51 | -24.02027 | 127.50280 | 36183 ft | 397 kts | 267° |
| 2026-05-04 16:52 | -24.02023 | 127.39217 | 36176 ft | 397 kts | 267° |
| 2026-05-04 16:53 | -24.02014 | 127.30162 | 36192 ft | 396 kts | 267° |
| 2026-05-04 16:54 | -24.01994 | 127.18140 | 36182 ft | 395 kts | 267° |
| 2026-05-04 16:55 | -24.01946 | 127.00155 | 36184 ft | 393 kts | 267° |
| 2026-05-04 16:56 | -24.01891 | 126.85242 | 36185 ft | 391 kts | 267° |
| 2026-05-04 16:57 | -24.01851 | 126.76312 | 36190 ft | 391 kts | 267° |
| 2026-05-04 16:58 | -24.01789 | 126.64449 | 36189 ft | 391 kts | 267° |
| 2026-05-04 17:00 | -24.01680 | 126.46546 | 36184 ft | 394 kts | 267° |
| 2026-05-04 17:01 | -24.01571 | 126.31631 | 36173 ft | 387 kts | 266° |
| 2026-05-04 17:02 | -24.01476 | 126.19966 | 36187 ft | 381 kts | 266° |
| 2026-05-04 17:03 | -24.01402 | 126.11281 | 36184 ft | 381 kts | 266° |
| 2026-05-04 17:03 | -24.01323 | 126.02597 | 36193 ft | 384 kts | 266° |
| 2026-05-04 17:04 | -24.01207 | 125.90845 | 36195 ft | 389 kts | 266° |
| 2026-05-04 17:05 | -24.01079 | 125.78948 | 36184 ft | 392 kts | 266° |
| 2026-05-04 17:06 | -24.00976 | 125.69988 | 36187 ft | 392 kts | 266° |
| 2026-05-04 17:07 | -24.00881 | 125.62077 | 36185 ft | 390 kts | 266° |
| 2026-05-04 17:07 | -24.00795 | 125.55215 | 36187 ft | 388 kts | 266° |
| 2026-05-04 17:08 | -24.00681 | 125.46402 | 36189 ft | 385 kts | 266° |
| 2026-05-04 17:09 | -24.00603 | 125.40559 | 36185 ft | 383 kts | 266° |
| 2026-05-04 17:09 | -24.00523 | 125.34750 | 36185 ft | 381 kts | 266° |
| 2026-05-04 17:10 | -24.00316 | 125.20369 | 36190 ft | 379 kts | 266° |
| 2026-05-04 17:11 | -24.00230 | 125.14593 | 36196 ft | 382 kts | 266° |
| 2026-05-04 17:12 | -24.00094 | 125.05823 | 36192 ft | 387 kts | 266° |
| 2026-05-04 17:13 | -23.98410 | 124.91205 | 36179 ft | 384 kts | 275° |
| 2026-05-04 17:14 | -23.96299 | 124.79821 | 36190 ft | 382 kts | 275° |
| 2026-05-04 17:15 | -23.94726 | 124.71282 | 36183 ft | 382 kts | 275° |
| 2026-05-04 17:16 | -23.92619 | 124.59883 | 36190 ft | 383 kts | 275° |
| 2026-05-04 17:17 | -23.90495 | 124.48445 | 36189 ft | 384 kts | 275° |
| 2026-05-04 17:18 | -23.88358 | 124.36988 | 36191 ft | 385 kts | 276° |
| 2026-05-04 17:19 | -23.86214 | 124.25542 | 36187 ft | 385 kts | 276° |
| 2026-05-04 17:20 | -23.84054 | 124.14063 | 36183 ft | 385 kts | 276° |
| 2026-05-04 17:20 | -23.82431 | 124.05467 | 36164 ft | 385 kts | 276° |
| 2026-05-04 17:21 | -23.80268 | 123.94056 | 36180 ft | 384 kts | 276° |
| 2026-05-04 17:22 | -23.79183 | 123.88346 | 36189 ft | 384 kts | 276° |
| 2026-05-04 17:23 | -23.77003 | 123.76918 | 36189 ft | 384 kts | 276° |
| 2026-05-04 17:24 | -23.75370 | 123.68383 | 36191 ft | 384 kts | 276° |
| 2026-05-04 17:25 | -23.73281 | 123.57510 | 36190 ft | 385 kts | 276° |
| 2026-05-04 17:26 | -23.71085 | 123.46123 | 36194 ft | 385 kts | 277° |
| 2026-05-04 17:27 | -23.68317 | 123.31842 | 36182 ft | 386 kts | 277° |
| 2026-05-04 17:28 | -23.66397 | 123.21974 | 36186 ft | 386 kts | 277° |
| 2026-05-04 17:29 | -23.63049 | 123.04860 | 36190 ft | 385 kts | 277° |
| 2026-05-04 17:31 | -23.60244 | 122.90595 | 36186 ft | 384 kts | 277° |
| 2026-05-04 17:32 | -23.57431 | 122.76361 | 36185 ft | 384 kts | 277° |
| 2026-05-04 17:33 | -23.55169 | 122.64971 | 36188 ft | 384 kts | 277° |
| 2026-05-04 17:34 | -23.52904 | 122.53608 | 36185 ft | 385 kts | 277° |
| 2026-05-04 17:35 | -23.50050 | 122.39359 | 36187 ft | 385 kts | 277° |
| 2026-05-04 17:36 | -23.48905 | 122.33659 | 36192 ft | 385 kts | 277° |
| 2026-05-04 17:36 | -23.47757 | 122.27954 | 36187 ft | 385 kts | 277° |
| 2026-05-04 17:37 | -23.46606 | 122.22252 | 36174 ft | 385 kts | 277° |
| 2026-05-04 17:37 | -23.45456 | 122.16564 | 36182 ft | 384 kts | 277° |
| 2026-05-04 17:38 | -23.44306 | 122.10892 | 36185 ft | 383 kts | 277° |
| 2026-05-04 17:38 | -23.43167 | 122.05278 | 36184 ft | 382 kts | 277° |
| 2026-05-04 17:39 | -23.41446 | 121.96819 | 36185 ft | 380 kts | 277° |
| 2026-05-04 17:39 | -23.40301 | 121.91200 | 36185 ft | 380 kts | 277° |
| 2026-05-04 17:40 | -23.39350 | 121.86545 | 36185 ft | 379 kts | 277° |
| 2026-05-04 17:40 | -23.38203 | 121.80939 | 36189 ft | 379 kts | 277° |
| 2026-05-04 17:41 | -23.36868 | 121.74427 | 36189 ft | 379 kts | 277° |
| 2026-05-04 17:41 | -23.35904 | 121.69735 | 36189 ft | 379 kts | 277° |
| 2026-05-04 17:42 | -23.34752 | 121.64138 | 36190 ft | 379 kts | 277° |
| 2026-05-04 17:42 | -23.33598 | 121.58544 | 36178 ft | 379 kts | 277° |
| 2026-05-04 17:43 | -23.32451 | 121.52990 | 36182 ft | 379 kts | 277° |
| 2026-05-04 17:43 | -23.31294 | 121.47403 | 36191 ft | 378 kts | 277° |
| 2026-05-04 17:44 | -23.30137 | 121.41824 | 36182 ft | 378 kts | 277° |
| 2026-05-04 17:44 | -23.28977 | 121.36238 | 36188 ft | 378 kts | 277° |
| 2026-05-04 17:45 | -23.27816 | 121.30661 | 36186 ft | 378 kts | 277° |
| 2026-05-04 17:45 | -23.26655 | 121.25092 | 36187 ft | 378 kts | 277° |
| 2026-05-04 17:46 | -23.25490 | 121.19517 | 36182 ft | 378 kts | 277° |
| 2026-05-04 17:46 | -23.24324 | 121.13944 | 36187 ft | 377 kts | 277° |
| 2026-05-04 17:47 | -23.23164 | 121.08415 | 36180 ft | 377 kts | 277° |
| 2026-05-04 17:47 | -23.21995 | 121.02854 | 36187 ft | 377 kts | 277° |
| 2026-05-04 17:48 | -23.20825 | 120.97294 | 36188 ft | 377 kts | 277° |
| 2026-05-04 17:48 | -23.19654 | 120.91741 | 36178 ft | 376 kts | 277° |
| 2026-05-04 17:49 | -23.18482 | 120.86194 | 36186 ft | 376 kts | 277° |
| 2026-05-04 17:49 | -23.17310 | 120.80655 | 36182 ft | 376 kts | 277° |
| 2026-05-04 17:50 | -23.16134 | 120.75110 | 36181 ft | 376 kts | 277° |
| 2026-05-04 17:50 | -23.14967 | 120.69616 | 36185 ft | 376 kts | 277° |
| 2026-05-04 17:51 | -23.13791 | 120.64089 | 36186 ft | 375 kts | 277° |
| 2026-05-04 17:51 | -23.12612 | 120.58556 | 36185 ft | 376 kts | 277° |
| 2026-05-04 17:52 | -23.11432 | 120.53033 | 36184 ft | 376 kts | 277° |
| 2026-05-04 17:52 | -23.10248 | 120.47496 | 36184 ft | 376 kts | 277° |
| 2026-05-04 17:53 | -23.09063 | 120.41966 | 36185 ft | 376 kts | 277° |
| 2026-05-04 17:53 | -23.07875 | 120.36433 | 36187 ft | 376 kts | 278° |
| 2026-05-04 17:54 | -23.06692 | 120.30934 | 36158 ft | 376 kts | 278° |
| 2026-05-04 17:54 | -23.05499 | 120.25401 | 36178 ft | 376 kts | 278° |
| 2026-05-04 17:55 | -23.04307 | 120.19876 | 36186 ft | 376 kts | 278° |
| 2026-05-04 17:55 | -23.03110 | 120.14342 | 36187 ft | 376 kts | 278° |
| 2026-05-04 17:56 | -23.01912 | 120.08807 | 36181 ft | 377 kts | 278° |
| 2026-05-04 17:56 | -23.01515 | 120.06975 | 36188 ft | 377 kts | 278° |
| 2026-05-04 17:57 | -23.00767 | 120.03532 | 36185 ft | 377 kts | 278° |
| 2026-05-04 17:57 | -23.00037 | 119.97986 | 36187 ft | 371 kts | 268° |
| 2026-05-04 17:58 | -23.00188 | 119.92371 | 36189 ft | 370 kts | 265° |
| 2026-05-04 17:58 | -23.00366 | 119.86817 | 36186 ft | 371 kts | 266° |
| 2026-05-04 17:59 | -23.00534 | 119.81222 | 36189 ft | 371 kts | 266° |
| 2026-05-04 18:00 | -23.00773 | 119.72810 | 36184 ft | 372 kts | 266° |
| 2026-05-04 18:00 | -23.00927 | 119.67198 | 36186 ft | 372 kts | 266° |
| 2026-05-04 18:01 | -23.01053 | 119.62533 | 36188 ft | 372 kts | 266° |
| 2026-05-04 18:02 | -23.01088 | 119.61244 | 36191 ft | 372 kts | 266° |
| 2026-05-04 18:02 | -23.01237 | 119.55636 | 36182 ft | 372 kts | 266° |
| 2026-05-04 18:03 | -23.01386 | 119.50024 | 36185 ft | 372 kts | 266° |
| 2026-05-04 18:03 | -23.01532 | 119.44405 | 36182 ft | 372 kts | 266° |
| 2026-05-04 18:04 | -23.01676 | 119.38783 | 36184 ft | 373 kts | 266° |
| 2026-05-04 18:05 | -23.01887 | 119.30380 | 36187 ft | 372 kts | 266° |
| 2026-05-04 18:05 | -23.02026 | 119.24766 | 36176 ft | 372 kts | 266° |
| 2026-05-04 18:06 | -23.02231 | 119.16349 | 36165 ft | 371 kts | 266° |
| 2026-05-04 18:06 | -23.02364 | 119.10781 | 36184 ft | 372 kts | 266° |
| 2026-05-04 18:07 | -23.02497 | 119.05156 | 36193 ft | 373 kts | 266° |
| 2026-05-04 18:07 | -23.02627 | 118.99520 | 36188 ft | 373 kts | 266° |
| 2026-05-04 18:08 | -23.02691 | 118.96715 | 36081 ft | 371 kts | 266° |
| 2026-05-04 18:08 | -23.02754 | 118.93928 | 35785 ft | 365 kts | 266° |
| 2026-05-04 18:08 | -23.02816 | 118.91186 | 35334 ft | 361 kts | 266° |
| 2026-05-04 18:08 | -23.02876 | 118.88486 | 34935 ft | 355 kts | 266° |
| 2026-05-04 18:09 | -23.02994 | 118.83172 | 34096 ft | 350 kts | 267° |
| 2026-05-04 18:09 | -23.03108 | 118.77943 | 33207 ft | 344 kts | 267° |
| 2026-05-04 18:10 | -23.03165 | 118.75353 | 32785 ft | 341 kts | 267° |
| 2026-05-04 18:10 | -23.03220 | 118.72785 | 32374 ft | 338 kts | 267° |
| 2026-05-04 18:10 | -23.03273 | 118.70269 | 31981 ft | 336 kts | 266° |
| 2026-05-04 18:10 | -23.03326 | 118.67744 | 31461 ft | 337 kts | 266° |
| 2026-05-04 18:11 | -23.03382 | 118.65160 | 30659 ft | 346 kts | 266° |
| 2026-05-04 18:11 | -23.03438 | 118.62531 | 30005 ft | 347 kts | 268° |
| 2026-05-04 18:11 | -23.03190 | 118.59921 | 29388 ft | 349 kts | 278° |
| 2026-05-04 18:11 | -23.02641 | 118.57353 | 28876 ft | 348 kts | 280° |
| 2026-05-04 18:12 | -23.02029 | 118.54808 | 28357 ft | 348 kts | 281° |
| 2026-05-04 18:12 | -23.01405 | 118.52273 | 27838 ft | 348 kts | 281° |
| 2026-05-04 18:12 | -23.00786 | 118.49769 | 27352 ft | 347 kts | 281° |
| 2026-05-04 18:12 | -23.00160 | 118.47236 | 26858 ft | 347 kts | 281° |
| 2026-05-04 18:13 | -22.99539 | 118.44709 | 26418 ft | 345 kts | 281° |
| 2026-05-04 18:13 | -22.98926 | 118.42203 | 26068 ft | 342 kts | 281° |
| 2026-05-04 18:13 | -22.97719 | 118.37239 | 25358 ft | 338 kts | 281° |
| 2026-05-04 18:14 | -22.97127 | 118.34780 | 25018 ft | 336 kts | 281° |
| 2026-05-04 18:14 | -22.96538 | 118.32333 | 24673 ft | 334 kts | 281° |
| 2026-05-04 18:14 | -22.95956 | 118.29898 | 24329 ft | 333 kts | 281° |
| 2026-05-04 18:15 | -22.94806 | 118.25049 | 23653 ft | 331 kts | 281° |
| 2026-05-04 18:15 | -22.93672 | 118.20188 | 22892 ft | 339 kts | 281° |
| 2026-05-04 18:15 | -22.93104 | 118.17706 | 22496 ft | 339 kts | 281° |
| 2026-05-04 18:16 | -22.92538 | 118.15226 | 22112 ft | 337 kts | 281° |
| 2026-05-04 18:16 | -22.91978 | 118.12764 | 21729 ft | 336 kts | 281° |
| 2026-05-04 18:16 | -22.91425 | 118.10306 | 21362 ft | 335 kts | 281° |
| 2026-05-04 18:17 | -22.90343 | 118.05403 | 20627 ft | 333 kts | 281° |
| 2026-05-04 18:17 | -22.89818 | 118.02957 | 20261 ft | 333 kts | 281° |
| 2026-05-04 18:17 | -22.88796 | 117.98064 | 19562 ft | 332 kts | 281° |
| 2026-05-04 18:18 | -22.88299 | 117.95617 | 19219 ft | 332 kts | 281° |
| 2026-05-04 18:18 | -22.87811 | 117.93167 | 18883 ft | 332 kts | 281° |
| 2026-05-04 18:18 | -22.87332 | 117.90713 | 18551 ft | 332 kts | 281° |
| 2026-05-04 18:18 | -22.86862 | 117.88258 | 18173 ft | 332 kts | 281° |
| 2026-05-04 18:19 | -22.85815 | 117.83392 | 17409 ft | 334 kts | 285° |
| 2026-05-04 18:19 | -22.85170 | 117.80984 | 17026 ft | 332 kts | 285° |
| 2026-05-04 18:19 | -22.84515 | 117.78588 | 16654 ft | 330 kts | 285° |
| 2026-05-04 18:20 | -22.83858 | 117.76209 | 16274 ft | 328 kts | 285° |
| 2026-05-04 18:20 | -22.83199 | 117.73845 | 15912 ft | 327 kts | 285° |
| 2026-05-04 18:20 | -22.82540 | 117.71492 | 15558 ft | 325 kts | 285° |
| 2026-05-04 18:20 | -22.81883 | 117.69150 | 15191 ft | 324 kts | 285° |
| 2026-05-04 18:21 | -22.81228 | 117.66824 | 14843 ft | 323 kts | 285° |
| 2026-05-04 18:21 | -22.80572 | 117.64499 | 14492 ft | 322 kts | 285° |
| 2026-05-04 18:21 | -22.79916 | 117.62184 | 14145 ft | 320 kts | 285° |
| 2026-05-04 18:21 | -22.79260 | 117.59876 | 13788 ft | 319 kts | 285° |
| 2026-05-04 18:22 | -22.78605 | 117.57583 | 13397 ft | 318 kts | 285° |
| 2026-05-04 18:22 | -22.77950 | 117.55297 | 13023 ft | 317 kts | 285° |
| 2026-05-04 18:22 | -22.77302 | 117.53052 | 12644 ft | 316 kts | 285° |
| 2026-05-04 18:22 | -22.76705 | 117.50994 | 12305 ft | 315 kts | 285° |
| 2026-05-04 18:23 | -22.76047 | 117.48737 | 11942 ft | 314 kts | 285° |
| 2026-05-04 18:23 | -22.75386 | 117.46487 | 11570 ft | 312 kts | 285° |
| 2026-05-04 18:23 | -22.74726 | 117.44253 | 11216 ft | 311 kts | 285° |
| 2026-05-04 18:23 | -22.74065 | 117.42028 | 10862 ft | 310 kts | 285° |
| 2026-05-04 18:24 | -22.73608 | 117.40502 | 10619 ft | 309 kts | 285° |
| 2026-05-04 18:24 | -22.72944 | 117.38296 | 10271 ft | 308 kts | 285° |
| 2026-05-04 18:24 | -22.72278 | 117.36102 | 9923 ft | 304 kts | 285° |
| 2026-05-04 18:24 | -22.71619 | 117.33948 | 9568 ft | 297 kts | 285° |
| 2026-05-04 18:25 | -22.70970 | 117.31851 | 9227 ft | 291 kts | 285° |
| 2026-05-04 18:25 | -22.70329 | 117.29798 | 8916 ft | 284 kts | 285° |
| 2026-05-04 18:25 | -22.69700 | 117.27791 | 8629 ft | 277 kts | 285° |
| 2026-05-04 18:25 | -22.69083 | 117.25836 | 8344 ft | 271 kts | 285° |
| 2026-05-04 18:26 | -22.68473 | 117.23918 | 8064 ft | 268 kts | 285° |
| 2026-05-04 18:26 | -22.67862 | 117.22011 | 7813 ft | 268 kts | 285° |
| 2026-05-04 18:26 | -22.67245 | 117.20101 | 7544 ft | 269 kts | 285° |
| 2026-05-04 18:26 | -22.66622 | 117.18185 | 7284 ft | 270 kts | 285° |
| 2026-05-04 18:27 | -22.65998 | 117.16267 | 7017 ft | 270 kts | 286° |
| 2026-05-04 18:27 | -22.65391 | 117.14369 | 6756 ft | 270 kts | 286° |
| 2026-05-04 18:27 | -22.64782 | 117.12444 | 6498 ft | 270 kts | 285° |
| 2026-05-04 18:27 | -22.64173 | 117.10510 | 6230 ft | 272 kts | 286° |
| 2026-05-04 18:28 | -22.63763 | 117.09198 | 6066 ft | 272 kts | 286° |
| 2026-05-04 18:28 | -22.62829 | 117.06700 | 5789 ft | 270 kts | 306° |
| 2026-05-04 18:28 | -22.61360 | 117.05541 | 5719 ft | 261 kts | 343° |
| 2026-05-04 18:28 | -22.59593 | 117.05449 | 5627 ft | 254 kts | 7° |
| 2026-05-04 18:29 | -22.57824 | 117.05769 | 5532 ft | 259 kts | 22° |
| 2026-05-04 18:29 | -22.56796 | 117.06420 | 5457 ft | 252 kts | 45° |
| 2026-05-04 18:29 | -22.55906 | 117.07972 | 5143 ft | 242 kts | 75° |
| 2026-05-04 18:29 | -22.55560 | 117.09722 | 4829 ft | 234 kts | 84° |
| 2026-05-04 18:30 | -22.55233 | 117.13114 | 4211 ft | 217 kts | 86° |
| 2026-05-04 18:30 | -22.55099 | 117.14684 | 3941 ft | 202 kts | 86° |
| 2026-05-04 18:30 | -22.54973 | 117.16141 | 3672 ft | 187 kts | 85° |
| 2026-05-04 18:31 | -22.54855 | 117.17484 | 3446 ft | 171 kts | 85° |
| 2026-05-04 18:31 | -22.54749 | 117.18700 | 3227 ft | 155 kts | 85° |
| 2026-05-04 18:31 | -22.54653 | 117.19798 | 3022 ft | 140 kts | 84° |
| 2026-05-04 18:31 | -22.54562 | 117.20846 | 2865 ft | 143 kts | 84° |
| 2026-05-04 18:32 | -22.54469 | 117.21936 | 2663 ft | 146 kts | 85° |
| 2026-05-04 18:32 | -22.54378 | 117.23018 | 2418 ft | 142 kts | 84° |
| 2026-05-04 18:32 | -22.54287 | 117.24071 | 2220 ft | 141 kts | 84° |
| 2026-05-04 18:32 | -22.54189 | 117.25132 | 2039 ft | 141 kts | 84° |
| 2026-05-04 18:33 | -22.54099 | 117.26183 | 1863 ft | 136 kts | 85° |
| 2026-05-04 18:33 | -22.54021 | 117.27050 | 1854 ft | 87 kts | 84° |
| 2026-05-04 18:33 | -22.53984 | 117.27467 | 1857 ft | 24 kts | 84° |
| 2026-05-04 18:33 | -22.53968 | 117.27639 | 1858 ft | 23 kts | 84° |
| 2026-05-04 18:34 | -22.53953 | 117.27805 | 1857 ft | 22 kts | 84° |
| 2026-05-04 18:34 | -22.53938 | 117.27967 | 1857 ft | 17 kts | 86° |
| 2026-05-04 18:34 | -22.53982 | 117.28012 | 1857 ft | 10 kts | 183° |
| 2026-05-04 18:34 | -22.54053 | 117.28020 | 1855 ft | 10 kts | 173° |
| 2026-05-04 18:35 | -22.54122 | 117.28033 | 1855 ft | 10 kts | 153° |
| 2026-05-04 18:35 | -22.54160 | 117.28073 | 1855 ft | 3 kts | 159° |
| 2026-05-04 18:35 | -22.54178 | 117.28069 | 1855 ft | 0 kts | 203° |